• Join FlightAware (Why Join?)
  • Login
  • US Flag 
07:18PM EST


 

Airport Tracker/Info


-or-


 

Live Flight TrackerFlight Track Log ✈ VH-KLS ✈ 18-Jul-2013 ✈ YMEK / MKR - YPJT / JAD

Flight Track Log - Related Links

Times and Time Zones

All times are in EDT time to prevent confusion due to time zone crossing. See the VH-KLS flight status page for this flight to view local times or setup timezone preferences in your user account.

Time Position Orientation Groundspeed Altitude Reporting Facility
EDT Latitude Longitude Course Direction KTS MPH feet Rate Location/Type
09:51AM -26.6695 118.5059 201° Southwest 8,000  Level Aus ATC (Calculated)
09:51AM -26.7320 118.4795 201° Southwest 8,000  Level Aus ATC (Calculated)
09:54AM -26.6812 118.5009 201° Southwest  Level FlightAware Approximate
09:54AM -26.8569 118.4265 201° Southwest 8,000  Level Aus ATC (Calculated)
09:56AM -26.9039 118.4065 201° Southwest  Level FlightAware Approximate
09:56AM -26.9194 118.4000 201° Southwest 8,000  Level Aus ATC (Calculated)
09:57AM -26.9447 118.3892 201° Southwest  Level FlightAware Approximate
09:58AM -26.9768 118.3755 201° Southwest  Level FlightAware Approximate
09:59AM -27.0160 118.3589 201° Southwest  Level FlightAware Approximate
10:00AM -27.0552 118.3422 201° Southwest  Level FlightAware Approximate
10:01AM -27.0943 118.3255 201° Southwest  Level FlightAware Approximate
10:02AM -27.1335 118.3088 201° Southwest  Level FlightAware Approximate
10:03AM -27.1726 118.2921 201° Southwest  Level FlightAware Approximate
10:04AM -27.2118 118.2754 201° Southwest  Level FlightAware Approximate
10:05AM -27.2510 118.2587 201° Southwest  Level FlightAware Approximate
10:06AM -27.2901 118.2419 201° Southwest  Level FlightAware Approximate
10:07AM -27.3293 118.2251 201° Southwest  Level FlightAware Approximate
10:08AM -27.3684 118.2084 201° Southwest  Level FlightAware Approximate
10:09AM -27.4076 118.1916 201° Southwest  Level FlightAware Approximate
10:10AM -27.4467 118.1748 201° Southwest  Level FlightAware Approximate
10:11AM -27.4859 118.1580 201° Southwest  Level FlightAware Approximate
10:12AM -27.5250 118.1412 201° Southwest  Level FlightAware Approximate
10:13AM -27.5641 118.1243 201° Southwest  Level FlightAware Approximate
10:14AM -27.6033 118.1075 201° Southwest  Level FlightAware Approximate
10:15AM -27.6424 118.0907 201° Southwest  Level FlightAware Approximate
10:16AM -27.6815 118.0738 201° Southwest  Level FlightAware Approximate
10:17AM -27.7207 118.0569 201° Southwest  Level FlightAware Approximate
10:18AM -27.7598 118.0400 201° Southwest  Level FlightAware Approximate
10:19AM -27.7989 118.0231 201° Southwest  Level FlightAware Approximate
10:20AM -27.8381 118.0062 201° Southwest  Level FlightAware Approximate
10:21AM -27.8772 117.9893 201° Southwest  Level FlightAware Approximate
10:22AM -27.9163 117.9723 201° Southwest  Level FlightAware Approximate
10:22AM -27.9180 117.9716 201° Southwest 8,000  Level Aus ATC (Calculated)
10:23AM -27.9571 117.9546 201° Southwest  Level FlightAware Approximate
10:24AM -27.9963 117.9377 201° Southwest  Level FlightAware Approximate
10:24AM -28.0427 117.9175 202° Southwest 8,000  Level Aus ATC (Calculated)
10:25AM -28.0819 117.9005 201° Southwest  Level FlightAware Approximate
10:26AM -28.1210 117.8835 201° Southwest  Level FlightAware Approximate
10:26AM -28.1051 117.8904 202° Southwest 8,000  Level Aus ATC (Calculated)
10:27AM -28.1601 117.8665 201° Southwest  Level FlightAware Approximate
10:28AM -28.1644 117.8646 201° Southwest  Level FlightAware Approximate
10:29AM -28.2035 117.8476 201° Southwest  Level FlightAware Approximate
10:30AM -28.2426 117.8305 201° Southwest  Level FlightAware Approximate
10:30AM -28.2921 117.8089 202° Southwest 8,000  Level Aus ATC (Calculated)
10:31AM -28.2817 117.8135 201° Southwest  Level FlightAware Approximate
10:32AM -28.3514 117.7830 201° Southwest  Level FlightAware Approximate
10:33AM -28.3905 117.7659 201° Southwest  Level FlightAware Approximate
10:34AM -28.4296 117.7488 201° Southwest  Level FlightAware Approximate
10:35AM -28.4687 117.7317 201° Southwest  Level FlightAware Approximate
10:35AM -28.4791 117.7272 202° Southwest 8,000  Level Aus ATC (Calculated)
10:37AM -28.5303 117.7047 201° Southwest  Level FlightAware Approximate
10:38AM -28.5696 117.6875 201° Southwest  Level FlightAware Approximate
10:39AM -28.6090 117.6702 201° Southwest  Level FlightAware Approximate
10:40AM -28.6483 117.6529 201° Southwest  Level FlightAware Approximate
10:41AM -28.6877 117.6356 201° Southwest  Level FlightAware Approximate
10:42AM -28.7270 117.6183 201° Southwest  Level FlightAware Approximate
10:43AM -28.7664 117.6010 201° Southwest  Level FlightAware Approximate
10:44AM -28.8057 117.5836 201° Southwest  Level FlightAware Approximate
10:45AM -28.8450 117.5663 201° Southwest  Level FlightAware Approximate
10:46AM -28.8844 117.5489 201° Southwest  Level FlightAware Approximate
10:47AM -28.9237 117.5315 201° Southwest  Level FlightAware Approximate
10:48AM -28.9631 117.5141 201° Southwest  Level FlightAware Approximate
10:49AM -29.0024 117.4967 201° Southwest  Level FlightAware Approximate
10:50AM -29.0417 117.4793 201° Southwest  Level FlightAware Approximate
10:51AM -29.0810 117.4618 201° Southwest  Level FlightAware Approximate
10:52AM -29.1204 117.4444 201° Southwest  Level FlightAware Approximate
10:53AM -29.1597 117.4269 201° Southwest  Level FlightAware Approximate
10:53AM -29.2264 117.3973 203° Southwest 8,000  Level Aus ATC (Calculated)
10:55AM -29.2808 117.3730 201° Southwest  Level FlightAware Approximate
10:56AM -29.3201 117.3555 201° Southwest  Level FlightAware Approximate
10:57AM -29.3594 117.3380 201° Southwest  Level FlightAware Approximate
10:58AM -29.3987 117.3205 201° Southwest  Level FlightAware Approximate
10:59AM -29.4380 117.3029 201° Southwest  Level FlightAware Approximate
11:00AM -29.4773 117.2853 201° Southwest  Level FlightAware Approximate
11:01AM -29.5166 117.2677 201° Southwest  Level FlightAware Approximate
11:02AM -29.5559 117.2501 201° Southwest  Level FlightAware Approximate
11:03AM -29.5952 117.2325 201° Southwest  Level FlightAware Approximate
11:04AM -29.6345 117.2149 201° Southwest  Level FlightAware Approximate
11:05AM -29.6738 117.1973 201° Southwest  Level FlightAware Approximate
11:06AM -29.7131 117.1796 201° Southwest  Level FlightAware Approximate
11:07AM -29.7524 117.1619 201° Southwest  Level FlightAware Approximate
11:07AM -29.7863 117.1467 207° Southwest 8,000  Level Aus ATC (Calculated)
11:08AM -29.7917 117.1443 201° Southwest  Level FlightAware Approximate
11:09AM -29.8458 117.1198 201° Southwest  Level FlightAware Approximate
11:10AM -29.8851 117.1021 201° Southwest  Level FlightAware Approximate
11:11AM -29.9244 117.0844 201° Southwest  Level FlightAware Approximate
11:12AM -29.9637 117.0667 201° Southwest  Level FlightAware Approximate
11:13AM -30.0029 117.0489 201° Southwest  Level FlightAware Approximate
11:14AM -30.0422 117.0311 201° Southwest  Level FlightAware Approximate
11:15AM -30.0815 117.0133 201° Southwest  Level FlightAware Approximate
11:16AM -30.1207 116.9955 201° Southwest  Level FlightAware Approximate
11:17AM -30.1600 116.9777 201° Southwest  Level FlightAware Approximate
11:17AM -29.9705 117.0395 201° Southwest 148 170 8,000  Level Aus ATC (RADAR)
11:18AM -30.0126 117.0236 198° South 147 169 8,100  Climbing Aus ATC (RADAR)
11:19AM -30.0553 117.0061 200° South 154 177 8,100 -60 Level Aus ATC (RADAR)
11:20AM -30.0950 116.9869 203° Southwest 157 181 8,000 -120 Descending Aus ATC (RADAR)
11:21AM -30.1428 116.9695 197° South 157 181 7,900  Descending Aus ATC (RADAR)
11:22AM -30.1838 116.9606 191° South 151 174 8,000  Climbing Aus ATC (RADAR)
11:23AM -30.2274 116.9464 196° South 151 174 8,000  Level Aus ATC (RADAR)
11:24AM -30.2693 116.9264 202° Southwest 153 176 8,000  Level Aus ATC (RADAR)
11:25AM -30.3103 116.9026 207° Southwest 151 174 8,000  Level Aus ATC (RADAR)
11:27AM -30.3526 116.8827 202° Southwest 152 175 8,000  Level Aus ATC (RADAR)
11:28AM -30.3955 116.8630 202° Southwest 152 175 8,000  Level Aus ATC (RADAR)
11:29AM -30.4366 116.8483 197° South 154 177 8,000  Level Aus ATC (RADAR)
11:30AM -30.4799 116.8257 204° Southwest 158 182 8,000  Level Aus ATC (RADAR)
11:31AM -30.5267 116.8034 202° Southwest 155 178 8,100  Climbing Aus ATC (RADAR)
11:32AM -30.5709 116.7868 198° South 155 178 8,100  Level Aus ATC (RADAR)
11:33AM -30.6085 116.7610 211° Southwest 158 182 8,100  Level Aus ATC (RADAR)
11:34AM -30.6476 116.7296 215° Southwest 157 181 8,100 -60 Level Aus ATC (RADAR)
11:35AM -30.6908 116.7050 206° Southwest 161 185 8,000 -120 Descending Aus ATC (RADAR)
11:36AM -30.7351 116.6824 204° Southwest 163 188 7,900  Descending Aus ATC (RADAR)
11:37AM -30.7734 116.6551 211° Southwest 162 186 8,000  Climbing Aus ATC (RADAR)
11:38AM -30.8164 116.6289 208° Southwest 161 185 8,000  Level Aus ATC (RADAR)
11:39AM -30.8597 116.6027 207° Southwest 162 186 8,000  Level Aus ATC (RADAR)
11:40AM -30.9021 116.5743 210° Southwest 163 188 8,000  Level Aus ATC (RADAR)
11:41AM -30.9412 116.5493 209° Southwest 162 186 8,000  Level Aus ATC (RADAR)
11:43AM -30.9845 116.5239 207° Southwest 161 185 8,100  Climbing Aus ATC (RADAR)
11:44AM -31.0273 116.4985 207° Southwest 160 184 8,100 -60 Level Aus ATC (RADAR)
11:45AM -31.0663 116.4723 210° Southwest 162 186 8,000 -60 Descending Aus ATC (RADAR)
11:46AM -31.1157 116.4426 207° Southwest 160 184 8,000  Level Aus ATC (RADAR)
11:47AM -31.1580 116.4157 209° Southwest 160 184 8,000  Level Aus ATC (RADAR)
11:48AM -31.1986 116.3860 212° Southwest 160 184 8,100  Climbing Aus ATC (RADAR)
11:49AM -31.2412 116.3610 207° Southwest 159 183 8,000 -60 Descending Aus ATC (RADAR)
11:50AM -31.2821 116.3403 203° Southwest 160 184 8,000  Level Aus ATC (RADAR)
11:51AM -31.3264 116.3174 204° Southwest 160 184  Descending Aus ATC (RADAR)
11:52AM -31.3692 116.2928 206° Southwest 159 183 8,000 3,840 Climbing Aus ATC (RADAR)
11:53AM -31.4090 116.2709 205° Southwest 159 183 8,100 -240 Climbing Aus ATC (RADAR)
11:54AM -31.4410 116.2175 235° Southwest 174 200 7,600 -600 Descending Aus ATC (RADAR)
11:55AM -31.4694 116.1689 235° Southwest 179 206 6,900 -720 Descending Aus ATC (RADAR)
11:57AM -31.5006 116.1161 235° Southwest 180 207 6,200 -660 Descending Aus ATC (RADAR)
11:58AM -31.5437 116.0752 219° Southwest 170 196 5,500 -600 Descending Aus ATC (RADAR)
11:59AM -31.5796 116.0370 222° Southwest 174 200 4,900 -660 Descending Aus ATC (RADAR)
12:00PM -31.6187 115.9969 221° Southwest 171 197 4,200 -420 Descending Aus ATC (RADAR)
12:01PM -31.6609 115.9509 223° Southwest 159 183 4,000 -360 Descending Aus ATC (RADAR)
12:02PM -31.6949 115.9164 221° Southwest 165 190 3,500 -540 Descending Aus ATC (RADAR)
12:03PM -31.7410 115.8966 200° South 164 189 2,900 -600 Descending Aus ATC (RADAR)
12:04PM -31.7888 115.8773 199° South 169 194 2,300 -420 Descending Aus ATC (RADAR)
12:05PM -31.8345 115.8577 200° South 157 181 2,000 -120 Descending Aus ATC (RADAR)
12:06PM -31.8709 115.8497 191° South 131 151 2,100  Climbing Aus ATC (RADAR)
12:07PM -31.9114 115.8409 190° South 128 147 2,000 -60 Descending Aus ATC (RADAR)
12:08PM -31.9462 115.8339 190° South 125 144 2,000  Level Aus ATC (RADAR)
12:09PM -31.9832 115.8267 189° South 123 142 2,100 -180 Climbing Aus ATC (RADAR)
12:11PM -32.0208 115.8334 171° South 128 147 1,700 -360 Descending Aus ATC (RADAR)
12:12PM -32.0519 115.8447 163° South 114 131 1,400 -240 Descending Aus ATC (RADAR)
12:13PM -32.0808 115.8623 153° Southeast 105 121 1,300 -60 Descending Aus ATC (RADAR)
12:14PM -32.1072 115.8816 148° Southeast 99 114 1,300 -120 Level Aus ATC (RADAR)
12:15PM -32.0988 115.9116 72° East 110 127 1,100 -480 Descending Aus ATC (RADAR)
12:16PM -32.0910 115.8897 293° West 98 113 300 -480 Descending Aus ATC (RADAR)
12:17PM -32.0985 115.8773 235° Southwest 17 20 100 -240 Descending Aus ATC (RADAR)